Time;durP1;ratioP1;P1;durP2;ratioP2;P2;SDS_P1;SDS_P2;PMS_P1;PMS_P2;Temp;Humidity;BMP_temperature;BMP_pressure;BME280_temperature;BME280_humidity;BME280_pressure;Samples;Min_cycle;Max_cycle;Signal;HPM_P1;HPM_P2
2023/07/30 00:10:15;;;;;;;7.72;1.88;;;;;;;26.40;92.54;100422.06;20897159;28;20480;-74
2023/07/30 00:20:39;;;;;;;7.18;1.77;;;;;;;26.40;86.33;100412.13;20907882;28;20095;-74
2023/07/30 00:31:02;;;;;;;5.30;1.80;;;;;;;26.41;80.82;100427.41;20875513;28;20569;-74
2023/07/30 00:41:06;;;;;;;6.13;1.65;;;;;;;26.38;78.36;100405.06;20913700;28;20049;-74
2023/07/30 00:51:30;;;;;;;3.47;1.40;;;;;;;26.47;75.78;100396.41;20935890;28;20059;-74
2023/07/30 01:01:57;;;;;;;3.15;1.67;;;;;;;26.46;82.43;100402.78;20905759;28;20048;-74
2023/07/30 01:12:20;;;;;;;6.05;2.28;;;;;;;26.39;88.16;100412.19;20901163;28;20152;-74
2023/07/30 01:22:44;;;;;;;5.43;2.00;;;;;;;26.32;97.31;100427.06;20886957;28;20102;-74
2023/07/30 01:33:07;;;;;;;5.00;2.20;;;;;;;26.22;98.19;100414.94;20892717;28;20087;-74
2023/07/30 01:43:31;;;;;;;4.03;2.20;;;;;;;26.17;100.00;100412.47;20901609;28;20556;-74
2023/07/30 01:53:54;;;;;;;3.78;2.00;;;;;;;26.14;99.44;100409.94;20889501;28;20045;-74
2023/07/30 02:04:18;;;;;;;6.00;2.03;;;;;;;26.09;98.07;100418.31;20908830;28;20052;-74
2023/07/30 02:14:41;;;;;;;7.10;2.22;;;;;;;26.14;99.24;100420.75;20887141;28;20049;-74
2023/07/30 02:25:06;;;;;;;5.88;1.77;;;;;;;26.08;100.00;100413.84;20896338;28;20555;-75
2023/07/30 02:35:28;;;;;;;6.78;2.10;;;;;;;26.05;100.00;100414.03;20893219;28;20307;-74
2023/07/30 02:45:52;;;;;;;9.20;2.78;;;;;;;26.03;100.00;100421.34;20915603;28;20041;-74
2023/07/30 02:56:15;;;;;;;4.93;2.20;;;;;;;26.08;100.00;100435.50;20896360;28;20051;-74
2023/07/30 03:06:40;;;;;;;5.93;2.63;;;;;;;26.02;100.00;100441.22;20903537;28;20566;-74
2023/07/30 03:17:02;;;;;;;5.40;2.67;;;;;;;26.03;100.00;100434.00;20929732;28;20059;-73
2023/07/30 03:27:26;;;;;;;5.65;2.80;;;;;;;26.01;100.00;100433.19;20887060;28;20071;-73
2023/07/30 03:37:49;;;;;;;6.95;2.47;;;;;;;25.98;100.00;100426.13;20924306;28;20053;-74
2023/07/30 03:48:14;;;;;;;7.60;2.20;;;;;;;26.24;100.00;100424.75;20900666;28;20045;-74
2023/07/30 03:58:36;;;;;;;4.20;1.90;;;;;;;26.56;100.00;100418.44;20871850;28;20049;-75
2023/07/30 04:09:01;;;;;;;6.05;1.90;;;;;;;26.96;100.00;100430.63;20874660;28;20041;-74
2023/07/30 04:19:24;;;;;;;5.85;2.20;;;;;;;27.36;100.00;100401.19;20865782;28;20599;-74
2023/07/30 04:29:48;;;;;;;5.57;1.75;;;;;;;27.74;100.00;100402.50;20895480;28;20531;-74
2023/07/30 04:40:02;;;;;;;3.85;1.75;;;;;;;28.17;100.00;100401.69;20863617;28;20535;-75
2023/07/30 04:50:09;;;;;;;5.07;2.00;;;;;;;28.62;100.00;100419.63;20907587;28;20448;-75
2023/07/30 05:00:32;;;;;;;6.00;2.42;;;;;;;29.04;100.00;100419.56;20924577;28;20056;-75
2023/07/30 05:10:56;;;;;;;6.03;1.63;;;;;;;29.51;100.00;100420.97;20905673;28;20128;-74
2023/07/30 05:21:19;;;;;;;7.82;2.45;;;;;;;29.98;100.00;100439.47;20884632;28;20047;-75
2023/07/30 05:31:44;;;;;;;8.98;1.80;;;;;;;30.59;96.06;100446.03;20896230;28;20075;-75
2023/07/30 05:41:46;;;;;;;7.53;1.55;;;;;;;31.23;88.94;100439.44;20894528;28;20045;-74
2023/07/30 05:52:11;;;;;;;4.97;2.00;;;;;;;32.06;69.49;100421.16;20895439;28;20053;-75
2023/07/30 06:02:34;;;;;;;5.53;1.80;;;;;;;32.78;60.81;100432.66;20888949;28;20374;-74
2023/07/30 06:12:58;;;;;;;5.35;1.50;;;;;;;33.35;51.85;100435.16;20901458;28;20052;-75
2023/07/30 06:23:20;;;;;;;5.13;1.50;;;;;;;33.68;49.08;100430.56;20914740;28;20105;-75
2023/07/30 06:33:44;;;;;;;6.28;1.60;;;;;;;34.45;46.73;100421.03;20969093;28;20500;-75
2023/07/30 06:44:07;;;;;;;6.97;2.22;;;;;;;34.43;46.19;100452.31;20981341;28;20044;-75
2023/07/30 06:54:31;;;;;;;6.03;1.95;;;;;;;34.64;45.79;100436.69;20968686;28;20048;-74
2023/07/30 07:04:55;;;;;;;6.33;2.17;;;;;;;34.60;44.63;100443.44;20982698;28;20074;-75
2023/07/30 07:15:20;;;;;;;4.82;1.70;;;;;;;34.85;45.04;100461.38;20991516;28;20064;-74
2023/07/30 07:25:44;;;;;;;8.03;1.60;;;;;;;35.00;44.71;100444.34;20956213;28;20053;-75
2023/07/30 07:36:09;;;;;;;6.40;1.80;;;;;;;35.11;43.99;100447.00;20980190;28;20443;-76
2023/07/30 07:46:32;;;;;;;3.77;1.53;;;;;;;34.93;44.04;100469.75;20974242;28;20075;-75
2023/07/30 07:56:55;;;;;;;5.82;1.50;;;;;;;35.05;44.29;100443.94;20887421;28;20048;-74
2023/07/30 08:07:18;;;;;;;3.83;1.48;;;;;;;35.01;43.64;100454.31;20877107;28;20123;-75
2023/07/30 08:17:42;;;;;;;5.22;1.50;;;;;;;35.44;43.13;100465.00;20911215;28;20056;-75
2023/07/30 08:28:05;;;;;;;11.55;2.22;;;;;;;35.36;42.35;100467.59;20873552;28;20559;-74
2023/07/30 08:38:12;;;;;;;4.60;1.60;;;;;;;35.77;41.85;100474.75;20946290;28;20048;-77
2023/07/30 08:48:35;;;;;;;7.60;2.03;;;;;;;35.86;40.39;100457.34;20905543;28;20064;-74
2023/07/30 08:59:00;;;;;;;8.63;1.73;;;;;;;36.19;39.41;100460.66;20883332;28;20049;-74
2023/07/30 09:09:22;;;;;;;;;;;;;;;35.99;38.80;100453.44;20921591;28;20049;-75
2023/07/30 09:19:49;;;;;;;6.68;1.70;;;;;;;35.81;38.95;100456.06;20894031;28;19932;-75
2023/07/30 09:30:12;;;;;;;6.32;1.38;;;;;;;36.34;38.13;100440.81;20875520;28;20045;-74
2023/07/30 09:40:38;;;;;;;4.90;1.42;;;;;;;36.45;36.96;100427.88;20887554;28;20049;-75
2023/07/30 09:51:02;;;;;;;4.45;1.40;;;;;;;36.76;35.92;100429.34;20878656;28;20065;-75
2023/07/30 10:01:29;;;;;;;7.43;3.90;;;;;;;36.34;35.72;100415.19;20868586;28;20155;-75
2023/07/30 10:11:54;;;;;;;6.28;1.70;;;;;;;36.73;35.73;100411.28;20884538;28;20053;-74
2023/07/30 10:22:26;;;;;;;4.68;1.52;;;;;;;36.64;34.51;100394.78;20943735;28;20045;-75
2023/07/30 10:33:05;;;;;;;6.20;1.70;;;;;;;36.46;35.44;100378.22;20892573;28;20040;-74
2023/07/30 10:43:31;;;;;;;3.28;1.13;;;;;;;35.91;35.23;100382.69;20898126;28;20068;-75
2023/07/30 10:53:54;;;;;;;6.85;1.65;;;;;;;35.72;35.07;100372.63;20893175;28;20504;-74
2023/07/30 11:03:58;;;;;;;3.97;1.23;;;;;;;35.69;33.66;100374.78;20890434;28;20090;-75
2023/07/30 11:14:21;;;;;;;5.50;1.50;;;;;;;35.94;34.18;100401.66;20897706;28;20065;-76
2023/07/30 11:24:45;;;;;;;6.72;3.28;;;;;;;36.02;35.83;100382.56;20865310;28;20135;-75
2023/07/30 11:35:09;;;;;;;4.90;2.00;;;;;;;35.94;35.37;100371.44;20879241;28;20404;-75
2023/07/30 11:45:33;;;;;;;6.30;2.03;;;;;;;36.23;34.74;100379.63;20879024;28;20721;-74
2023/07/30 11:55:55;;;;;;;3.22;1.45;;;;;;;36.07;36.82;100371.97;20884649;28;20068;-74
2023/07/30 12:06:21;;;;;;;6.88;1.52;;;;;;;35.62;36.76;100365.38;20888778;28;20091;-74
2023/07/30 12:16:45;;;;;;;5.95;1.95;;;;;;;35.53;37.87;100365.25;20887570;28;20049;-75
2023/07/30 12:27:10;;;;;;;5.75;1.40;;;;;;;36.01;36.85;100369.81;20879965;28;20060;-74
2023/07/30 12:37:35;;;;;;;6.63;1.88;;;;;;;35.85;37.01;100358.56;20890401;28;20080;-75
2023/07/30 12:47:59;;;;;;;6.53;1.65;;;;;;;35.87;36.84;100354.66;20887272;28;20468;-75
2023/07/30 12:58:01;;;;;;;6.57;2.50;;;;;;;35.85;37.33;100364.06;20894508;28;20143;-74
2023/07/30 13:08:25;;;;;;;4.25;1.58;;;;;;;36.01;38.06;100335.97;20883574;28;20444;-74
2023/07/30 13:18:48;;;;;;;5.37;1.77;;;;;;;35.95;37.75;100331.94;20890335;28;20082;-73
2023/07/30 13:29:12;;;;;;;7.05;2.15;;;;;;;35.62;38.16;100310.44;20869725;28;20091;-73
2023/07/30 13:39:34;;;;;;;10.25;1.70;;;;;;;35.33;38.52;100322.31;20899360;28;20114;-73
2023/07/30 13:49:59;;;;;;;7.20;1.73;;;;;;;35.27;38.03;100317.41;20878174;28;20136;-73
2023/07/30 14:00:21;;;;;;;9.48;1.88;;;;;;;34.98;38.39;100298.19;20881073;28;20048;-73
2023/07/30 14:10:45;;;;;;;5.95;1.80;;;;;;;35.21;38.51;100317.13;20906124;28;20110;-73
2023/07/30 14:21:08;;;;;;;6.90;1.45;;;;;;;35.29;38.99;100318.16;20917594;28;20499;-74
2023/07/30 14:31:12;;;;;;;5.97;1.88;;;;;;;35.65;39.29;100323.84;20897859;28;20041;-73
2023/07/30 14:41:35;;;;;;;6.65;1.83;;;;;;;35.16;40.81;100306.56;20878617;28;20044;-72
2023/07/30 14:52:00;;;;;;;2.88;1.50;;;;;;;34.88;41.14;100311.00;20899466;28;20055;-73
2023/07/30 15:02:23;;;;;;;5.18;1.70;;;;;;;35.01;40.22;100306.13;20887997;28;20048;-74
2023/07/30 15:12:47;;;;;;;5.22;1.70;;;;;;;34.34;39.83;100305.94;20876442;28;20049;-73
2023/07/30 15:23:12;;;;;;;8.00;2.73;;;;;;;33.27;40.94;100289.03;20871683;28;20041;-74
2023/07/30 15:33:36;;;;;;;5.05;1.75;;;;;;;32.50;43.52;100286.38;20881912;28;20057;-74
2023/07/30 15:43:59;;;;;;;7.32;2.13;;;;;;;32.00;46.43;100287.78;20895042;28;20068;-75
2023/07/30 15:54:35;;;;;;;7.45;1.98;;;;;;;31.77;49.07;100259.59;20910500;28;20114;-73
2023/07/30 16:04:59;;;;;;;6.93;1.70;;;;;;;31.48;50.69;100263.78;20894512;28;20382;-75
2023/07/30 16:15:26;;;;;;;9.63;2.13;;;;;;;31.16;57.90;100261.72;20883340;28;20386;-74
2023/07/30 16:25:48;;;;;;;8.20;2.07;;;;;;;31.09;59.74;100262.31;20936317;28;20455;-74
2023/07/30 16:36:13;;;;;;;6.05;2.45;;;;;;;30.78;66.20;100270.09;20944831;28;20045;-75
2023/07/30 16:46:36;;;;;;;8.35;2.10;;;;;;;30.58;69.81;100280.78;20942814;28;20044;-74
2023/07/30 16:57:00;;;;;;;9.90;2.50;;;;;;;30.31;79.88;100279.09;20951908;28;20052;-74
2023/07/30 17:07:22;;;;;;;8.90;2.45;;;;;;;30.05;87.42;100286.44;20927383;28;20052;-75
2023/07/30 17:17:50;;;;;;;9.32;3.38;;;;;;;29.92;86.53;100299.22;20968821;28;20048;-75
2023/07/30 17:28:13;;;;;;;10.65;3.45;;;;;;;29.65;89.76;100295.69;20932266;28;20041;-74
2023/07/30 17:38:31;;;;;;;10.88;2.20;;;;;;;29.50;88.99;100296.78;20959028;28;20405;-75
2023/07/30 17:48:54;;;;;;;7.50;2.30;;;;;;;29.28;90.29;100300.06;20948341;28;20400;-74
2023/07/30 17:59:19;;;;;;;7.75;2.72;;;;;;;29.10;90.42;100301.34;20919578;28;20143;-74
2023/07/30 18:09:42;;;;;;;11.35;2.80;;;;;;;28.95;89.29;100299.69;20953853;28;20041;-74
2023/07/30 18:20:08;;;;;;;7.97;2.60;;;;;;;28.88;93.43;100304.69;20986720;28;20424;-74
2023/07/30 18:30:30;;;;;;;8.88;2.20;;;;;;;28.82;94.49;100307.78;20985816;28;20075;-74
2023/07/30 18:40:54;;;;;;;7.22;2.35;;;;;;;28.79;95.11;100308.00;20923697;28;20535;-75
2023/07/30 18:51:17;;;;;;;10.50;3.13;;;;;;;28.74;94.81;100334.59;20955678;28;20049;-73
2023/07/30 19:01:41;;;;;;;11.23;3.13;;;;;;;28.57;96.82;100318.50;20968243;28;20072;-74
2023/07/30 19:11:44;;;;;;;10.85;4.10;;;;;;;28.46;96.62;100336.41;20915389;28;20053;-74
2023/07/30 19:22:09;;;;;;;9.48;2.08;;;;;;;28.33;96.15;100345.44;20904681;28;20055;-74
2023/07/30 19:32:32;;;;;;;5.35;2.53;;;;;;;28.27;94.38;100348.56;20982362;28;20483;-74
2023/07/30 19:42:57;;;;;;;7.00;2.55;;;;;;;28.16;94.36;100338.38;20962901;28;20040;-74
2023/07/30 19:53:20;;;;;;;9.55;2.42;;;;;;;27.96;93.94;100327.91;20979120;28;20044;-74
2023/07/30 20:03:45;;;;;;;8.68;3.15;;;;;;;27.93;91.90;100337.09;20978462;28;20062;-75
2023/07/30 20:14:07;;;;;;;6.50;1.95;;;;;;;27.90;91.02;100325.53;20915586;28;20056;-73
2023/07/30 20:24:31;;;;;;;8.57;2.65;;;;;;;27.81;95.92;100326.13;20917349;28;20048;-73
2023/07/30 20:34:54;;;;;;;9.82;2.60;;;;;;;27.70;100.00;100332.22;20875855;28;20052;-74
2023/07/30 20:45:19;;;;;;;6.47;1.95;;;;;;;27.65;100.00;100327.09;20886554;28;20119;-73
2023/07/30 20:55:43;;;;;;;5.75;2.50;;;;;;;27.56;99.51;100322.25;20922262;28;20069;-74
2023/07/30 21:05:48;;;;;;;6.60;2.00;;;;;;;27.54;98.03;100326.88;20923735;28;20382;-74
2023/07/30 21:15:50;;;;;;;6.03;2.00;;;;;;;27.49;98.58;100304.56;20913313;28;20071;-73
2023/07/30 21:25:56;;;;;;;5.53;2.20;;;;;;;27.44;100.00;100301.25;20923652;28;20103;-74
2023/07/30 21:36:18;;;;;;;5.63;2.22;;;;;;;27.34;100.00;100289.25;20925080;28;20160;-75
2023/07/30 21:46:22;;;;;;;7.68;2.20;;;;;;;27.30;100.00;100294.00;20906094;28;20509;-74
2023/07/30 21:56:45;;;;;;;5.72;2.28;;;;;;;27.23;100.00;100272.75;20907821;28;20079;-74
2023/07/30 22:07:10;;;;;;;5.93;2.33;;;;;;;27.26;100.00;100250.88;20891345;28;20045;-75
2023/07/30 22:17:32;;;;;;;7.53;2.40;;;;;;;27.22;100.00;100249.34;20856852;28;20056;-73
2023/07/30 22:27:57;;;;;;;5.97;2.30;;;;;;;27.13;100.00;100253.47;20845761;28;20053;-75
2023/07/30 22:38:20;;;;;;;9.18;2.10;;;;;;;27.01;100.00;100242.50;20892968;28;20045;-75
2023/07/30 22:48:45;;;;;;;5.75;1.92;;;;;;;26.92;100.00;100235.78;20806869;28;20428;-74
2023/07/30 22:59:07;;;;;;;7.15;2.22;;;;;;;26.84;100.00;100228.13;20902552;28;20424;-73
2023/07/30 23:09:11;;;;;;;7.00;2.00;;;;;;;26.84;100.00;100209.16;20900404;28;20420;-74
2023/07/30 23:19:14;;;;;;;6.75;2.20;;;;;;;26.82;100.00;100208.38;20893664;28;20553;-74
2023/07/30 23:29:38;;;;;;;5.15;2.08;;;;;;;26.81;100.00;100203.91;20898625;28;20493;-74
2023/07/30 23:40:01;;;;;;;7.68;2.30;;;;;;;26.77;100.00;100196.06;20883184;28;20405;-74
2023/07/30 23:50:25;;;;;;;5.53;2.03;;;;;;;26.76;100.00;100197.91;20909317;28;20069;-74
